createdAt,value
2023-02-14T00:00:00.510Z,94.7
2023-02-14T00:01:00.762Z,94.7
2023-02-14T00:02:00.484Z,94.7
2023-02-14T00:03:00.534Z,95
2023-02-14T00:04:00.532Z,95
2023-02-14T00:05:00.509Z,94.7
2023-02-14T00:06:00.489Z,94.7
2023-02-14T00:07:00.519Z,94.8
2023-02-14T00:08:00.496Z,94.8
2023-02-14T00:09:00.495Z,95
2023-02-14T00:10:00.538Z,95
2023-02-14T00:11:00.733Z,95
2023-02-14T00:12:00.518Z,95.3
2023-02-14T00:13:00.504Z,95
2023-02-14T00:14:00.521Z,95.2
2023-02-14T00:15:00.531Z,95.4
2023-02-14T00:16:00.680Z,95.7
2023-02-14T00:17:00.534Z,95.7
2023-02-14T00:18:00.533Z,95.7
2023-02-14T00:19:00.530Z,95.7
2023-02-14T00:20:00.560Z,95.7
2023-02-14T00:21:00.787Z,95.7
2023-02-14T00:22:00.532Z,95.7
2023-02-14T00:23:00.533Z,95.7
2023-02-14T00:24:00.508Z,95.4
2023-02-14T00:25:00.506Z,95.1
2023-02-14T00:26:00.508Z,95.1
2023-02-14T00:27:00.533Z,95.1
2023-02-14T00:28:00.512Z,95.1
2023-02-14T00:29:00.535Z,95.1
2023-02-14T00:30:00.606Z,95.1
2023-02-14T00:31:01.068Z,94.5
2023-02-14T00:32:00.626Z,94.5
2023-02-14T00:33:00.526Z,94.5
2023-02-14T00:34:00.540Z,94.5
2023-02-14T00:35:00.529Z,94.5
2023-02-14T00:36:00.518Z,94.5
2023-02-14T00:37:00.559Z,94.5
2023-02-14T00:38:00.530Z,94.5
2023-02-14T00:39:00.545Z,94.5
2023-02-14T00:40:00.542Z,94.5
2023-02-14T00:41:00.869Z,94.5
2023-02-14T00:42:00.526Z,94.5
2023-02-14T00:43:00.537Z,94.8
2023-02-14T00:44:00.557Z,94.8
2023-02-14T00:45:00.532Z,94.8
2023-02-14T00:46:00.601Z,95.1
2023-02-14T00:47:00.544Z,95.1
2023-02-14T00:48:00.532Z,94.8
2023-02-14T00:49:00.549Z,94.8
2023-02-14T00:50:00.565Z,94.8
2023-02-14T00:51:00.921Z,94.8
2023-02-14T00:52:00.551Z,94.4
2023-02-14T00:53:00.579Z,94.5
2023-02-14T00:54:00.545Z,94.4
2023-02-14T00:55:00.560Z,94.4
2023-02-14T00:56:00.565Z,94.5
2023-02-14T00:57:00.547Z,94.8
2023-02-14T00:58:00.565Z,94.8
2023-02-14T00:59:00.569Z,94.8
2023-02-14T01:00:00.569Z,94.7
2023-02-14T01:01:01.010Z,94.8
2023-02-14T01:02:00.561Z,94.7
2023-02-14T01:03:00.564Z,95.1
2023-02-14T01:04:00.550Z,94.9
2023-02-14T01:05:00.557Z,95.1
2023-02-14T01:06:00.604Z,95
2023-02-14T01:07:00.578Z,95.1
2023-02-14T01:08:00.560Z,95.1
2023-02-14T01:09:00.573Z,95
2023-02-14T01:10:00.804Z,94.7
2023-02-14T01:11:01.053Z,94.9
2023-02-14T01:12:00.556Z,95.1
2023-02-14T01:13:00.560Z,95
2023-02-14T01:14:00.573Z,95.1
2023-02-14T01:15:00.571Z,95
2023-02-14T01:16:00.580Z,95.1
2023-02-14T01:17:00.569Z,95.1
2023-02-14T01:18:00.612Z,95.1
2023-02-14T01:19:00.594Z,95.1
2023-02-14T01:20:00.583Z,95.1
2023-02-14T01:21:00.873Z,95.1
2023-02-14T01:22:00.574Z,95.1
2023-02-14T01:23:00.571Z,95.1
2023-02-14T01:24:00.590Z,95.1
2023-02-14T01:25:00.568Z,94.4
2023-02-14T01:26:00.586Z,94.4
2023-02-14T01:27:00.574Z,94.4
2023-02-14T01:28:00.597Z,94.8
2023-02-14T01:29:00.603Z,94.8
2023-02-14T01:30:00.762Z,94.6
2023-02-14T01:31:00.958Z,94.8
2023-02-14T01:32:00.620Z,94.8
2023-02-14T01:33:00.584Z,94.8
2023-02-14T01:34:00.595Z,94.8
2023-02-14T01:35:00.610Z,95.1
2023-02-14T01:36:00.607Z,95.1
2023-02-14T01:37:00.581Z,94.9
2023-02-14T01:38:00.588Z,95.1
2023-02-14T01:39:00.590Z,95
2023-02-14T01:40:00.616Z,95
2023-02-14T01:41:01.038Z,94.8
2023-02-14T01:42:00.587Z,94.4
2023-02-14T01:43:00.635Z,94.4
2023-02-14T01:44:00.608Z,94.7
2023-02-14T01:45:00.620Z,95
2023-02-14T01:46:00.649Z,95
2023-02-14T01:47:00.596Z,95
2023-02-14T01:48:00.594Z,95
2023-02-14T01:49:00.601Z,95.1
2023-02-14T01:50:00.702Z,95
2023-02-14T01:51:01.037Z,95
2023-02-14T01:52:03.052Z,94.7
2023-02-14T01:53:00.616Z,94.7
2023-02-14T01:54:00.607Z,94.7
2023-02-14T01:55:00.606Z,94.7
2023-02-14T01:56:00.628Z,95
2023-02-14T01:57:00.634Z,95
2023-02-14T01:58:00.627Z,95
2023-02-14T01:59:00.621Z,94.9
2023-02-14T02:00:00.822Z,95
2023-02-14T02:01:01.003Z,95
2023-02-14T02:02:00.674Z,95
2023-02-14T02:03:00.677Z,95
2023-02-14T02:04:00.618Z,95
2023-02-14T02:05:00.640Z,95
2023-02-14T02:06:00.642Z,95
2023-02-14T02:07:00.637Z,95
2023-02-14T02:08:00.624Z,95
2023-02-14T02:09:00.703Z,95
2023-02-14T02:10:00.748Z,95
2023-02-14T02:11:01.039Z,94.7
2023-02-14T02:12:00.680Z,94.8
2023-02-14T02:13:00.845Z,94.8
2023-02-14T02:14:00.629Z,95
2023-02-14T02:15:00.682Z,95
2023-02-14T02:16:00.650Z,95
2023-02-14T02:17:00.705Z,95
2023-02-14T02:18:00.645Z,95
2023-02-14T02:19:00.657Z,95
2023-02-14T02:20:00.666Z,94.7
2023-02-14T02:21:00.999Z,95
2023-02-14T02:22:00.656Z,94.9
2023-02-14T02:23:00.638Z,95
2023-02-14T02:24:00.644Z,95
2023-02-14T02:25:00.644Z,95
2023-02-14T02:26:00.664Z,95.3
2023-02-14T02:27:00.663Z,95.1
2023-02-14T02:28:00.665Z,95.6
2023-02-14T02:29:00.646Z,95.2
2023-02-14T02:30:00.754Z,95.3
2023-02-14T02:31:01.206Z,94.9
2023-02-14T02:32:00.822Z,94.9
2023-02-14T02:33:00.651Z,94.9
2023-02-14T02:34:00.660Z,95.2
2023-02-14T02:35:00.670Z,95.2
2023-02-14T02:36:00.675Z,95.5
2023-02-14T02:37:00.677Z,95.5
2023-02-14T02:38:00.682Z,95.5
2023-02-14T02:39:00.668Z,95.5
2023-02-14T02:40:00.678Z,95.6
2023-02-14T02:41:01.008Z,95.5
2023-02-14T02:42:00.662Z,95.5
2023-02-14T02:43:00.658Z,95.5
2023-02-14T02:44:02.343Z,95.5
2023-02-14T02:45:00.667Z,95.5
2023-02-14T02:46:00.715Z,95.3
2023-02-14T02:47:00.663Z,95.5
2023-02-14T02:48:00.664Z,95.5
2023-02-14T02:49:00.663Z,95.3
2023-02-14T02:50:00.670Z,95.6
2023-02-14T02:51:00.941Z,95.5
2023-02-14T02:52:00.677Z,95.8
2023-02-14T02:53:00.666Z,95.5
2023-02-14T02:54:00.672Z,95.8
2023-02-14T02:55:00.698Z,95.6
2023-02-14T02:56:00.727Z,95.5
2023-02-14T02:57:00.696Z,95.5
2023-02-14T02:58:00.688Z,95.5
2023-02-14T02:59:00.675Z,95.8
2023-02-14T03:00:00.685Z,95.8
2023-02-14T03:01:01.433Z,95.9
2023-02-14T03:02:01.050Z,95.8
2023-02-14T03:03:01.051Z,95.6
2023-02-14T03:04:01.055Z,96.1
2023-02-14T03:05:01.101Z,95.9
2023-02-14T03:06:01.077Z,96.1
2023-02-14T03:07:01.062Z,95.5
2023-02-14T03:08:01.076Z,95.8
2023-02-14T03:09:01.062Z,95.8
2023-02-14T03:10:01.089Z,95.5
2023-02-14T03:11:01.419Z,95.5
2023-02-14T03:12:01.066Z,95.5
2023-02-14T03:13:01.064Z,95.5
2023-02-14T03:14:01.074Z,95.5
2023-02-14T03:15:01.098Z,95.5
2023-02-14T03:16:01.180Z,95.2
2023-02-14T03:17:01.069Z,95.2
2023-02-14T03:18:01.078Z,95.2
2023-02-14T03:19:01.094Z,95.2
2023-02-14T03:20:01.137Z,95.5
2023-02-14T03:21:01.385Z,95.5
2023-02-14T03:22:01.095Z,95.5
2023-02-14T03:23:01.106Z,95.5
2023-02-14T03:24:01.093Z,95.8
2023-02-14T03:25:01.088Z,95.3
2023-02-14T03:26:01.108Z,95.5
2023-02-14T03:27:01.092Z,95.5
2023-02-14T03:28:01.082Z,95.5
2023-02-14T03:29:01.104Z,95.5
2023-02-14T03:30:01.224Z,95.5
2023-02-14T03:31:01.652Z,95.5
2023-02-14T03:32:01.280Z,95.4
2023-02-14T03:33:01.133Z,95.5
2023-02-14T03:34:01.089Z,95.5
2023-02-14T03:35:01.110Z,95
2023-02-14T03:36:01.127Z,94.9
2023-02-14T03:37:01.095Z,94.9
2023-02-14T03:38:01.093Z,94.9
2023-02-14T03:39:01.091Z,95
2023-02-14T03:40:01.138Z,95.2
2023-02-14T03:41:01.592Z,95.2
2023-02-14T03:42:01.093Z,95.2
2023-02-14T03:43:01.102Z,95.2
2023-02-14T03:44:01.104Z,95.2
2023-02-14T03:45:01.131Z,95.2
2023-02-14T03:46:01.192Z,95.5
2023-02-14T03:47:01.126Z,95.2
2023-02-14T03:48:01.098Z,95.2
2023-02-14T03:49:01.099Z,95.2
2023-02-14T03:50:01.119Z,95.2
2023-02-14T03:51:01.318Z,95.3
2023-02-14T03:52:01.125Z,95.3
2023-02-14T03:53:01.102Z,95.1
2023-02-14T03:54:01.105Z,94.9
2023-02-14T03:55:01.118Z,94.9
2023-02-14T03:56:01.122Z,95
2023-02-14T03:57:01.131Z,94.9
2023-02-14T03:58:01.120Z,94.9
2023-02-14T03:59:01.155Z,95.3
2023-02-14T04:00:01.160Z,95.3
2023-02-14T04:01:01.551Z,95
2023-02-14T04:02:01.207Z,95.3
2023-02-14T04:03:01.138Z,95
2023-02-14T04:04:01.134Z,95
2023-02-14T04:05:01.122Z,95
2023-02-14T04:06:01.143Z,94.9
2023-02-14T04:07:01.129Z,94.9
2023-02-14T04:08:01.139Z,95
2023-02-14T04:09:01.118Z,95
2023-02-14T04:10:01.139Z,94.6
2023-02-14T04:11:01.532Z,94.7
2023-02-14T04:12:01.138Z,94.9
2023-02-14T04:13:01.148Z,94.7
2023-02-14T04:14:01.176Z,94.9
2023-02-14T04:15:01.153Z,95
2023-02-14T04:16:01.219Z,94.9
2023-02-14T04:17:01.149Z,95
2023-02-14T04:18:01.152Z,94.8
2023-02-14T04:19:01.131Z,95
2023-02-14T04:20:01.169Z,94.8
2023-02-14T04:21:01.434Z,95
2023-02-14T04:22:01.157Z,95
2023-02-14T04:23:03.288Z,95
2023-02-14T04:24:01.147Z,95
2023-02-14T04:25:01.140Z,94.5
2023-02-14T04:26:01.173Z,94.5
2023-02-14T04:27:01.161Z,95
2023-02-14T04:28:01.135Z,94.6
2023-02-14T04:29:01.138Z,95
2023-02-14T04:30:01.309Z,95
2023-02-14T04:31:01.786Z,95
2023-02-14T04:32:01.397Z,95
2023-02-14T04:33:01.144Z,94.8
2023-02-14T04:34:01.149Z,94.9
2023-02-14T04:35:01.166Z,94.9
2023-02-14T04:36:01.174Z,95
2023-02-14T04:37:01.175Z,95
2023-02-14T04:38:01.146Z,95
2023-02-14T04:39:01.152Z,95
2023-02-14T04:40:01.180Z,95
2023-02-14T04:41:01.555Z,95.3
2023-02-14T04:42:01.181Z,95
2023-02-14T04:43:01.160Z,95.3
2023-02-14T04:44:01.172Z,95
2023-02-14T04:45:03.818Z,95
2023-02-14T04:46:01.177Z,95
2023-02-14T04:47:01.181Z,95
2023-02-14T04:48:00.490Z,95
2023-02-14T04:49:00.479Z,95
2023-02-14T04:50:00.516Z,95.3
2023-02-14T04:51:00.905Z,95.1
2023-02-14T04:52:00.495Z,95
2023-02-14T04:53:00.519Z,95.1
2023-02-14T04:54:00.491Z,95
2023-02-14T04:55:00.505Z,95
2023-02-14T04:56:00.512Z,95
2023-02-14T04:57:00.498Z,95
2023-02-14T04:58:00.495Z,95.3
2023-02-14T04:59:00.491Z,95.3
2023-02-14T05:00:00.511Z,94.8
2023-02-14T05:01:00.972Z,95.4
2023-02-14T05:02:00.631Z,95
2023-02-14T05:03:00.518Z,94.9
2023-02-14T05:04:00.504Z,95
2023-02-14T05:05:00.498Z,95.3
2023-02-14T05:06:00.519Z,95.3
2023-02-14T05:07:00.499Z,95
2023-02-14T05:08:00.499Z,95.3
2023-02-14T05:09:00.515Z,95.6
2023-02-14T05:10:00.497Z,95.6
2023-02-14T05:11:00.837Z,95.6
2023-02-14T05:12:00.506Z,95.6
2023-02-14T05:13:00.497Z,95.6
2023-02-14T05:14:00.504Z,95.6
2023-02-14T05:15:00.528Z,95.9
2023-02-14T05:16:00.598Z,95.9
2023-02-14T05:17:00.532Z,96
2023-02-14T05:18:00.518Z,95.9
2023-02-14T05:19:00.529Z,95.8
2023-02-14T05:20:00.525Z,95.6
2023-02-14T05:21:00.865Z,95.9
2023-02-14T05:22:00.507Z,95.9
2023-02-14T05:23:00.509Z,95.6
2023-02-14T05:24:00.521Z,95.4
2023-02-14T05:25:01.225Z,95.6
2023-02-14T05:26:00.531Z,95.9
2023-02-14T05:27:00.522Z,96.2
2023-02-14T05:28:00.512Z,96.2
2023-02-14T05:29:00.541Z,96.2
2023-02-14T05:30:00.579Z,96.2
2023-02-14T05:31:01.014Z,96.2
2023-02-14T05:32:00.642Z,96.2
2023-02-14T05:33:01.235Z,96.2
2023-02-14T05:34:00.551Z,96.2
2023-02-14T05:35:01.315Z,96
2023-02-14T05:36:00.602Z,96.2
2023-02-14T05:37:00.629Z,96.2
2023-02-14T05:38:01.314Z,95.7
2023-02-14T05:39:00.557Z,95.9
2023-02-14T05:40:00.559Z,96.2
2023-02-14T05:41:00.975Z,96.2
2023-02-14T05:42:00.580Z,96.2
2023-02-14T05:43:00.621Z,96.2
2023-02-14T05:44:00.625Z,95.9
2023-02-14T05:45:00.626Z,96
2023-02-14T05:46:00.781Z,95.9
2023-02-14T05:47:00.631Z,95.9
2023-02-14T05:48:00.699Z,95.9
2023-02-14T05:49:00.700Z,95.6
2023-02-14T05:50:00.769Z,95.9
2023-02-14T05:51:01.018Z,95.9
2023-02-14T05:52:00.675Z,95.9
2023-02-14T05:53:00.708Z,95.6
2023-02-14T05:54:00.650Z,95.9
2023-02-14T05:55:00.550Z,95.6
2023-02-14T05:56:00.569Z,95.6
2023-02-14T05:57:00.559Z,95.6
2023-02-14T05:58:00.584Z,95.3
2023-02-14T05:59:00.552Z,95.4
2023-02-14T06:00:00.584Z,95.4
2023-02-14T06:01:00.975Z,95.3
2023-02-14T06:02:00.630Z,95.2
2023-02-14T06:03:00.568Z,95.3
2023-02-14T06:04:00.645Z,95.5
2023-02-14T06:05:00.560Z,95.2
2023-02-14T06:06:00.580Z,95.3
2023-02-14T06:07:00.576Z,95.5
2023-02-14T06:08:00.576Z,95.5
2023-02-14T06:09:00.568Z,95.6
2023-02-14T06:10:00.610Z,95.4
2023-02-14T06:11:00.852Z,95.5
2023-02-14T06:12:00.572Z,95.3
2023-02-14T06:13:00.583Z,94.7
2023-02-14T06:14:00.592Z,94.9
2023-02-14T06:15:00.604Z,94.9
2023-02-14T06:16:00.612Z,94.9
2023-02-14T06:17:00.732Z,94.9
2023-02-14T06:18:00.578Z,94.7
2023-02-14T06:19:00.597Z,94.9
2023-02-14T06:20:00.603Z,94.9
2023-02-14T06:21:00.987Z,94.9
2023-02-14T06:22:00.586Z,94.9
2023-02-14T06:23:00.608Z,95.2
2023-02-14T06:24:00.582Z,95.2
2023-02-14T06:25:00.587Z,95.5
2023-02-14T06:26:00.609Z,95.5
2023-02-14T06:27:00.593Z,95.3
2023-02-14T06:28:00.609Z,95.5
2023-02-14T06:29:00.593Z,95.3
2023-02-14T06:30:00.707Z,95.5
2023-02-14T06:31:01.104Z,95.5
2023-02-14T06:32:00.708Z,95.6
2023-02-14T06:33:00.593Z,95.5
2023-02-14T06:34:00.589Z,95.8
2023-02-14T06:35:00.591Z,95.6
2023-02-14T06:36:00.610Z,95.3
2023-02-14T06:37:00.648Z,95.5
2023-02-14T06:38:00.615Z,95.3
2023-02-14T06:39:00.596Z,95.3
2023-02-14T06:40:00.614Z,95.5
2023-02-14T06:41:00.868Z,95.5
2023-02-14T06:42:00.602Z,95.5
2023-02-14T06:43:00.626Z,95
2023-02-14T06:44:00.598Z,95.6
2023-02-14T06:45:00.609Z,95.5
2023-02-14T06:46:00.641Z,95.2
2023-02-14T06:47:00.627Z,94.9
2023-02-14T06:48:00.604Z,94.7
2023-02-14T06:49:00.610Z,95.2
2023-02-14T06:50:00.643Z,95
2023-02-14T06:51:00.971Z,94.7
2023-02-14T06:52:00.615Z,95
2023-02-14T06:53:00.612Z,94.9
2023-02-14T06:54:00.614Z,95.2
2023-02-14T06:55:00.689Z,95.2
2023-02-14T06:56:00.637Z,95
2023-02-14T06:57:00.610Z,95
2023-02-14T06:58:00.627Z,95.3
2023-02-14T06:59:00.646Z,95
2023-02-14T07:00:00.699Z,95.3
2023-02-14T07:01:01.004Z,95.5
2023-02-14T07:02:00.651Z,95.3
2023-02-14T07:03:00.680Z,95.3
2023-02-14T07:04:00.632Z,95.3
2023-02-14T07:05:00.659Z,95.5
2023-02-14T07:06:00.676Z,95.3
2023-02-14T07:07:00.623Z,95.3
2023-02-14T07:08:00.627Z,95.5
2023-02-14T07:09:00.628Z,95.5
2023-02-14T07:10:00.652Z,95.3
2023-02-14T07:11:01.011Z,95.3
2023-02-14T07:12:00.634Z,95.3
2023-02-14T07:13:00.629Z,95.5
2023-02-14T07:14:00.628Z,95.3
2023-02-14T07:15:00.642Z,95.5
2023-02-14T07:16:00.735Z,95.5
2023-02-14T07:17:00.662Z,95.5
2023-02-14T07:18:00.632Z,95.9
2023-02-14T07:19:00.637Z,96
2023-02-14T07:20:00.658Z,95.7
2023-02-14T07:21:01.188Z,95.8
2023-02-14T07:22:00.640Z,95.6
2023-02-14T07:23:00.663Z,95.6
2023-02-14T07:24:00.648Z,95.4
2023-02-14T07:25:00.726Z,95.6
2023-02-14T07:26:00.668Z,95.4
2023-02-14T07:27:00.657Z,95.1
2023-02-14T07:28:00.648Z,95.3
2023-02-14T07:29:00.652Z,95
2023-02-14T07:30:00.770Z,95
2023-02-14T07:31:01.071Z,95.1
2023-02-14T07:32:00.781Z,95.3
2023-02-14T07:33:00.650Z,95.1
2023-02-14T07:34:00.657Z,94.8
2023-02-14T07:35:00.687Z,95
2023-02-14T07:36:00.676Z,95
2023-02-14T07:37:00.829Z,95
2023-02-14T07:38:00.696Z,95
2023-02-14T07:39:00.672Z,94.8
2023-02-14T07:40:00.690Z,95.1
2023-02-14T07:41:01.007Z,95.1
2023-02-14T07:42:00.671Z,94.8
2023-02-14T07:43:00.656Z,94.8
2023-02-14T07:44:00.668Z,94.3
2023-02-14T07:45:09.385Z,94.6
2023-02-14T07:46:00.718Z,94.6
2023-02-14T07:47:00.694Z,94.8
2023-02-14T07:48:00.665Z,94.9
2023-02-14T07:49:00.679Z,94.8
2023-02-14T07:50:00.692Z,94.8
2023-02-14T07:51:01.014Z,94.5
2023-02-14T07:52:00.681Z,94.5
2023-02-14T07:53:00.682Z,94.2
2023-02-14T07:54:00.671Z,94
2023-02-14T07:55:00.719Z,94.3
2023-02-14T07:56:00.693Z,94.3
2023-02-14T07:57:00.684Z,94.5
2023-02-14T07:58:00.678Z,94.3
2023-02-14T07:59:00.672Z,94.3
2023-02-14T08:00:00.723Z,94.5
2023-02-14T08:01:01.089Z,94.3
2023-02-14T08:02:00.792Z,94.5
2023-02-14T08:03:00.680Z,94.8
2023-02-14T08:04:00.679Z,94.8
2023-02-14T08:05:00.832Z,94.8
2023-02-14T08:06:00.701Z,94.6
2023-02-14T08:07:00.714Z,94.5
2023-02-14T08:08:00.706Z,94.3
2023-02-14T08:09:00.688Z,94.5
2023-02-14T08:10:00.723Z,94.5
2023-02-14T08:11:00.983Z,94.5
2023-02-14T08:12:00.714Z,94.2
2023-02-14T08:13:00.744Z,93.9
2023-02-14T08:14:00.690Z,93.9
2023-02-14T08:15:00.727Z,94
2023-02-14T08:16:00.775Z,93.9
2023-02-14T08:17:00.710Z,93.9
2023-02-14T08:18:00.691Z,93.7
2023-02-14T08:19:00.695Z,93.9
2023-02-14T08:20:00.760Z,93.8
2023-02-14T08:21:01.064Z,93.8
2023-02-14T08:22:00.698Z,93.8
2023-02-14T08:23:00.702Z,94
2023-02-14T08:24:00.708Z,94
2023-02-14T08:25:00.952Z,94
2023-02-14T08:26:00.723Z,94
2023-02-14T08:27:00.712Z,94
2023-02-14T08:28:00.723Z,94
2023-02-14T08:29:00.699Z,94
2023-02-14T08:30:00.801Z,93.4
2023-02-14T08:31:01.085Z,93.2
2023-02-14T08:32:00.925Z,93.2
2023-02-14T08:33:00.770Z,93.4
2023-02-14T08:34:00.724Z,93.4
2023-02-14T08:35:00.767Z,93.1
2023-02-14T08:36:00.723Z,92.6
2023-02-14T08:37:00.728Z,92.6
2023-02-14T08:38:00.821Z,92.8
2023-02-14T08:39:00.713Z,92.5
2023-02-14T08:40:00.730Z,92.2
2023-02-14T08:41:01.165Z,92.3
2023-02-14T08:42:00.723Z,92.2
2023-02-14T08:43:00.727Z,91.8
2023-02-14T08:44:00.772Z,91.6
2023-02-14T08:45:00.753Z,91.6
2023-02-14T08:46:01.090Z,91.5
2023-02-14T08:47:00.781Z,91.6
2023-02-14T08:48:00.732Z,91
2023-02-14T08:49:00.735Z,91.7
2023-02-14T08:50:00.760Z,91.6
2023-02-14T08:51:01.048Z,91.7
2023-02-14T08:52:00.757Z,91.5
2023-02-14T08:53:00.777Z,91.5
2023-02-14T08:54:00.772Z,91.7
2023-02-14T08:55:00.760Z,91.1
2023-02-14T08:56:01.143Z,90.7
2023-02-14T08:57:00.777Z,91
2023-02-14T08:58:00.762Z,90.9
2023-02-14T08:59:00.757Z,90.4
2023-02-14T09:00:00.839Z,89.6
2023-02-14T09:01:01.155Z,90.4
2023-02-14T09:02:00.813Z,90.8
2023-02-14T09:03:00.744Z,90.8
2023-02-14T09:04:00.782Z,91.1
2023-02-14T09:05:00.761Z,91.1
2023-02-14T09:06:00.780Z,90.3
2023-02-14T09:07:00.744Z,89.8
2023-02-14T09:08:00.761Z,90.3
2023-02-14T09:09:02.584Z,90.5
2023-02-14T09:10:00.818Z,90.3
2023-02-14T09:11:01.072Z,90.5
2023-02-14T09:12:00.758Z,90.5
2023-02-14T09:13:00.940Z,90.2
2023-02-14T09:14:00.791Z,90.2
2023-02-14T09:15:00.863Z,89.7
2023-02-14T09:16:00.851Z,89.9
2023-02-14T09:17:00.853Z,89.6
2023-02-14T09:18:00.763Z,89.6
2023-02-14T09:19:00.760Z,89.9
2023-02-14T09:20:00.856Z,89.9
2023-02-14T09:21:01.263Z,89.9
2023-02-14T09:22:00.850Z,90
2023-02-14T09:23:00.766Z,89.9
2023-02-14T09:24:00.769Z,89.9
2023-02-14T09:25:00.830Z,89.9
2023-02-14T09:26:00.786Z,90.2
2023-02-14T09:27:00.766Z,90.2
2023-02-14T09:28:00.808Z,89.9
2023-02-14T09:29:01.049Z,89.8
2023-02-14T09:30:00.880Z,90.3
2023-02-14T09:31:01.167Z,90
2023-02-14T09:32:00.882Z,90
2023-02-14T09:33:00.807Z,89.8
2023-02-14T09:34:00.787Z,89.2
2023-02-14T09:35:00.820Z,89.3
2023-02-14T09:36:00.805Z,88.7
2023-02-14T09:37:00.796Z,88.7
2023-02-14T09:38:00.830Z,88.8
2023-02-14T09:39:00.792Z,88.9
2023-02-14T09:40:00.839Z,89.1
2023-02-14T09:41:01.053Z,89.4
2023-02-14T09:42:00.821Z,89.1
2023-02-14T09:43:02.134Z,89.4
2023-02-14T09:44:00.812Z,88.6
2023-02-14T09:45:00.821Z,88.6
2023-02-14T09:46:00.917Z,89.4
2023-02-14T09:47:00.786Z,89.4
2023-02-14T09:48:00.810Z,88.8
2023-02-14T09:49:00.858Z,88.9
2023-02-14T09:50:00.847Z,88.8
2023-02-14T09:51:01.079Z,88.8
2023-02-14T09:52:00.801Z,88.2
2023-02-14T09:53:00.806Z,87.6
2023-02-14T09:54:00.790Z,86.7
2023-02-14T09:55:00.840Z,87.6
2023-02-14T09:56:00.809Z,88.2
2023-02-14T09:57:00.806Z,88.2
2023-02-14T09:58:00.817Z,88.5
2023-02-14T09:59:00.795Z,88.5
2023-02-14T10:00:00.838Z,88.3
2023-02-14T10:01:01.247Z,88.2
2023-02-14T10:02:00.823Z,88
2023-02-14T10:03:00.837Z,88.2
2023-02-14T10:04:00.824Z,87.6
2023-02-14T10:05:00.824Z,87.4
2023-02-14T10:06:00.827Z,87.6
2023-02-14T10:07:00.824Z,87.6
2023-02-14T10:08:00.802Z,87.6
2023-02-14T10:09:00.838Z,87.6
2023-02-14T10:10:00.827Z,86.8
2023-02-14T10:11:01.209Z,87.3
2023-02-14T10:12:00.833Z,87.7
2023-02-14T10:13:00.804Z,87.6
2023-02-14T10:14:00.950Z,87.3
2023-02-14T10:15:01.073Z,87.5
2023-02-14T10:16:00.829Z,88
2023-02-14T10:17:01.090Z,87.6
2023-02-14T10:18:00.830Z,87.7
2023-02-14T10:19:00.813Z,87.7
2023-02-14T10:20:00.842Z,87.7
2023-02-14T10:21:01.246Z,87.6
2023-02-14T10:22:00.836Z,87.3
2023-02-14T10:23:00.828Z,86.7
2023-02-14T10:24:00.910Z,87.4
2023-02-14T10:25:00.846Z,87.7
2023-02-14T10:26:00.890Z,88
2023-02-14T10:27:00.869Z,87.7
2023-02-14T10:28:00.834Z,87.5
2023-02-14T10:29:00.954Z,87.7
2023-02-14T10:30:01.014Z,87.7
2023-02-14T10:31:01.477Z,87.7
2023-02-14T10:32:00.966Z,87.4
2023-02-14T10:33:01.032Z,87.4
2023-02-14T10:34:00.850Z,87.4
2023-02-14T10:35:01.045Z,87.1
2023-02-14T10:36:00.933Z,86.8
2023-02-14T10:37:00.998Z,87.1
2023-02-14T10:38:00.864Z,86.8
2023-02-14T10:39:00.836Z,86.8
2023-02-14T10:40:00.858Z,86.8
2023-02-14T10:41:01.120Z,87.1
2023-02-14T10:42:00.839Z,86.5
2023-02-14T10:43:00.843Z,86.6
2023-02-14T10:44:00.839Z,86.6
2023-02-14T10:45:00.860Z,86.9
2023-02-14T10:46:00.892Z,86.2
2023-02-14T10:47:00.842Z,86.2
2023-02-14T10:48:00.827Z,85.9
2023-02-14T10:49:00.796Z,85.9
2023-02-14T10:50:00.806Z,86
2023-02-14T10:51:01.173Z,86
2023-02-14T10:52:00.860Z,86
2023-02-14T10:53:00.680Z,86
2023-02-14T10:54:00.657Z,85.3
2023-02-14T10:55:00.654Z,86
2023-02-14T10:56:00.613Z,85.4
2023-02-14T10:57:00.583Z,84.8
2023-02-14T10:58:00.555Z,85.4
2023-02-14T10:59:00.508Z,85.2
2023-02-14T11:00:00.539Z,86
2023-02-14T11:01:00.761Z,86
2023-02-14T11:02:00.454Z,86.6
2023-02-14T11:03:00.468Z,85.4
2023-02-14T11:04:00.545Z,85.2
2023-02-14T11:05:00.473Z,84.8
2023-02-14T11:06:00.496Z,85.1
2023-02-14T11:07:00.446Z,85.4
2023-02-14T11:08:00.476Z,85.4
2023-02-14T11:09:00.448Z,85.4
2023-02-14T11:10:00.485Z,84.8
2023-02-14T11:11:00.829Z,84.8
2023-02-14T11:12:00.493Z,85.4
2023-02-14T11:13:00.453Z,85.4
2023-02-14T11:14:00.465Z,85.5
2023-02-14T11:15:00.490Z,85.5
2023-02-14T11:16:00.655Z,85.5
2023-02-14T11:17:00.540Z,85.5
2023-02-14T11:18:00.484Z,84.6
2023-02-14T11:19:00.467Z,84.9
2023-02-14T11:20:00.482Z,84.9
2023-02-14T11:21:00.538Z,84.9
2023-02-14T11:22:00.479Z,84.6
2023-02-14T11:23:00.494Z,84.9
2023-02-14T11:24:00.477Z,84.3
2023-02-14T11:25:01.133Z,83.6
2023-02-14T11:26:00.758Z,83.3
2023-02-14T11:27:00.489Z,84.2
2023-02-14T11:28:00.526Z,84.9
2023-02-14T11:29:00.494Z,85.5
2023-02-14T11:30:00.569Z,84.9
2023-02-14T11:31:00.904Z,84.9
2023-02-14T11:32:00.530Z,84.3
2023-02-14T11:33:00.501Z,84.6
2023-02-14T11:34:01.886Z,84.6
2023-02-14T11:35:00.511Z,84.6
2023-02-14T11:36:00.469Z,84
2023-02-14T11:37:00.488Z,84
2023-02-14T11:38:00.481Z,84.3
2023-02-14T11:39:00.505Z,84.3
2023-02-14T11:40:00.500Z,84.3
2023-02-14T11:41:00.690Z,84
2023-02-14T11:42:00.517Z,83.1
2023-02-14T11:43:13.354Z,83
2023-02-14T11:44:00.561Z,83.7
2023-02-14T11:45:00.513Z,83.4
2023-02-14T11:46:00.580Z,83
2023-02-14T11:47:00.488Z,83.2
2023-02-14T11:48:00.508Z,83.7
2023-02-14T11:49:00.518Z,83.7
2023-02-14T11:50:00.510Z,83.7
2023-02-14T11:51:00.901Z,84
2023-02-14T11:52:00.563Z,84
2023-02-14T11:53:01.408Z,84.3
2023-02-14T11:54:00.597Z,84.3
2023-02-14T11:55:00.518Z,83.7
2023-02-14T11:56:00.515Z,83.4
2023-02-14T11:57:00.515Z,83.1
2023-02-14T11:58:00.504Z,83.7
2023-02-14T11:59:00.522Z,84
2023-02-14T12:00:00.521Z,84.4
2023-02-14T12:01:00.983Z,83.7
2023-02-14T12:02:00.523Z,83.7
2023-02-14T12:03:00.491Z,83.7
2023-02-14T12:04:00.593Z,83.7
2023-02-14T12:05:00.513Z,83.4
2023-02-14T12:06:00.513Z,83.1
2023-02-14T12:07:00.504Z,82.5
2023-02-14T12:08:00.545Z,82.5
2023-02-14T12:09:00.629Z,82.8
2023-02-14T12:10:00.571Z,81.3
2023-02-14T12:11:00.854Z,81.9
2023-02-14T12:12:00.905Z,82.2
2023-02-14T12:13:00.902Z,81.9
2023-02-14T12:14:01.060Z,82.2
2023-02-14T12:15:00.953Z,82.5
2023-02-14T12:16:00.977Z,82.5
2023-02-14T12:17:00.957Z,83.1
2023-02-14T12:18:00.887Z,82.8
2023-02-14T12:19:01.052Z,82.5
2023-02-14T12:20:00.980Z,82.2
2023-02-14T12:21:01.348Z,82.5
2023-02-14T12:22:01.060Z,82.5
2023-02-14T12:23:00.914Z,83.1
2023-02-14T12:24:01.081Z,83.4
2023-02-14T12:25:01.112Z,83.6
2023-02-14T12:26:00.520Z,83.7
2023-02-14T12:27:00.536Z,83.1
2023-02-14T12:28:00.526Z,83.1
2023-02-14T12:29:00.549Z,83.1
2023-02-14T12:30:00.652Z,83.4
2023-02-14T12:31:00.914Z,83.1
2023-02-14T12:32:01.115Z,83.7
2023-02-14T12:33:00.531Z,83.7
2023-02-14T12:34:00.554Z,84.1
2023-02-14T12:35:00.528Z,83.8
2023-02-14T12:36:00.548Z,83.5
2023-02-14T12:37:00.539Z,82.8
2023-02-14T12:38:04.753Z,83.5
2023-02-14T12:39:00.567Z,83.2
2023-02-14T12:40:00.553Z,82.9
2023-02-14T12:41:00.935Z,83.2
2023-02-14T12:42:00.559Z,83.2
2023-02-14T12:43:00.555Z,83.2
2023-02-14T12:44:00.581Z,82.9
2023-02-14T12:45:00.543Z,82.5
2023-02-14T12:46:00.761Z,81.9
2023-02-14T12:47:00.559Z,82.2
2023-02-14T12:48:00.531Z,82.6
2023-02-14T12:49:00.560Z,82.9
2023-02-14T12:50:00.558Z,83.2
2023-02-14T12:51:00.876Z,83.2
2023-02-14T12:52:00.562Z,82.9
2023-02-14T12:53:00.555Z,82.6
2023-02-14T12:54:00.567Z,83.2
2023-02-14T12:55:00.581Z,83.2
2023-02-14T12:56:00.563Z,83.2
2023-02-14T12:57:00.712Z,83.2
2023-02-14T12:58:00.553Z,83.2
2023-02-14T12:59:00.564Z,83.2
2023-02-14T13:00:00.562Z,83.2
2023-02-14T13:01:00.813Z,82.9
2023-02-14T13:02:00.611Z,82.6
2023-02-14T13:03:00.622Z,82.6
2023-02-14T13:04:00.568Z,82.3
2023-02-14T13:05:00.631Z,82.6
2023-02-14T13:06:00.603Z,82.6
2023-02-14T13:07:00.582Z,82.6
2023-02-14T13:08:00.594Z,82.3
2023-02-14T13:09:00.564Z,82.3
2023-02-14T13:10:00.627Z,82.3
2023-02-14T13:11:00.901Z,82.6
2023-02-14T13:12:00.564Z,82.3
2023-02-14T13:13:00.569Z,81.7
2023-02-14T13:14:00.568Z,82
2023-02-14T13:15:00.572Z,82
2023-02-14T13:16:00.646Z,82.1
2023-02-14T13:17:00.565Z,81.4
2023-02-14T13:18:00.570Z,82.1
2023-02-14T13:19:00.613Z,81.8
2023-02-14T13:20:00.599Z,81.4
2023-02-14T13:21:00.835Z,81.7
2023-02-14T13:22:00.596Z,81.7
2023-02-14T13:23:00.576Z,81.7
2023-02-14T13:24:00.579Z,82.1
2023-02-14T13:25:00.619Z,81.7
2023-02-14T13:26:00.614Z,82
2023-02-14T13:27:00.594Z,81.1